Time;durP1;ratioP1;P1;durP2;ratioP2;P2;SDS_P1;SDS_P2;PMS_P1;PMS_P2;Temp;Humidity;BMP_temperature;BMP_pressure;BME280_temperature;BME280_humidity;BME280_pressure;Samples;Min_cycle;Max_cycle;Signal;HPM_P1;HPM_P2
2022/06/24 00:01:23;;;;;;;;;;;;;;;;;;4798681;29;19936;-89
2022/06/24 00:04:15;;;;;;;;;;;;;;;;;;4811179;29;19962;-88
2022/06/24 00:06:47;;;;;;;;;;;;;;;;;;4803569;29;19932;-88
2022/06/24 00:09:13;;;;;;;;;;;;;;;;;;4805053;29;19973;-89
2022/06/24 00:11:39;;;;;;;;;;;;;;;;;;4793920;29;19924;-89
2022/06/24 00:14:08;;;;;;;;;;;;;;;;;;4848119;29;21548;-89
2022/06/24 00:16:38;;;;;;;;;;;;;;;;;;4842561;29;19939;-88
2022/06/24 00:19:05;;;;;;;;;;;;;;;;;;4847287;29;19988;-88
2022/06/24 00:21:31;;;;;;;;;;;;;;;;;;4845455;29;19975;-88
2022/06/24 00:23:58;;;;;;;;;;;;;;;;;;4839220;29;20003;-89
2022/06/24 00:26:24;;;;;;;;;;;;;;;;;;4853501;29;19981;-88
2022/06/24 00:28:50;;;;;;;;;;;;;;;;;;4852085;29;19971;-89
2022/06/24 00:31:17;;;;;;;;;;;;;;;;;;4851323;29;19988;-89
2022/06/24 00:33:46;;;;;;;;;;;;;;;;;;4842143;29;19934;-88
2022/06/24 00:36:14;;;;;;;;;;;;;;;;;;4846470;29;20038;-88
2022/06/24 00:38:42;;;;;;;;;;;;;;;;;;4842385;29;20002;-88
2022/06/24 00:41:27;;;;;;;;;;;;;;;;;;4815734;29;20015;-88
2022/06/24 00:43:54;;;;;;;;;;;;;;;;;;4811844;29;20085;-88
2022/06/24 00:46:21;;;;;;;;;;;;;;;;;;4814659;29;19938;-88
2022/06/24 00:48:49;;;;;;;;;;;;;;;;;;4828951;29;20333;-88
2022/06/24 00:51:16;;;;;;;;;;;;;;;;;;4814899;29;19924;-88
2022/06/24 00:53:42;;;;;;;;;;;;;;;;;;4813602;29;20078;-89
2022/06/24 00:56:09;;;;;;;;;;;;;;;;;;4804956;29;19924;-88
2022/06/24 00:58:37;;;;;;;;;;;;;;;;;;4803106;29;19943;-88
2022/06/24 01:01:04;;;;;;;;;;;;;;;;;;4816682;29;19934;-89
2022/06/24 01:03:30;;;;;;;;;;;;;;;;;;4829238;29;19932;-88
2022/06/24 01:06:02;;;;;;;;;;;;;;;;;;4820114;29;20224;-88
2022/06/24 01:08:29;;;;;;;;;;;;;;;;;;4803888;29;19940;-88
2022/06/24 01:10:55;;;;;;;;;;;;;;;;;;4816469;29;23211;-88
2022/06/24 01:13:31;;;;;;;;;;;;;;;;;;4828589;29;20456;-89
2022/06/24 01:15:57;;;;;;;;;;;;;;;;;;4812326;29;19924;-88
2022/06/24 01:18:26;;;;;;;;;;;;;;;;;;4832469;29;19990;-88
2022/06/24 01:20:52;;;;;;;;;;;;;;;;;;4816702;29;19936;-88
2022/06/24 01:23:19;;;;;;;;;;;;;;;;;;4814424;29;19936;-89
2022/06/24 01:25:45;;;;;;;;;;;;;;;;;;4832665;29;19935;-88
2022/06/24 01:28:12;;;;;;;;;;;;;;;;;;4846323;29;20450;-88
2022/06/24 01:30:39;;;;;;;;;;;;;;;;;;4844950;29;20064;-88
2022/06/24 01:33:06;;;;;;;;;;;;;;;;;;4845040;29;19970;-88
2022/06/24 01:35:35;;;;;;;;;;;;;;;;;;4842498;29;19928;-88
2022/06/24 01:38:02;;;;;;;;;;;;;;;;;;4846512;29;19924;-89
2022/06/24 01:40:30;;;;;;;;;;;;;;;;;;4841449;29;20007;-88
2022/06/24 01:42:55;;;;;;;;;;;;;;;;;;4834905;29;20296;-88
2022/06/24 01:45:23;;;;;;;;;;;;;;;;;;4842714;29;19931;-88
2022/06/24 01:48:04;;;;;;;;;;;;;;;;;;4849181;29;19934;-88
2022/06/24 01:50:32;;;;;;;;;;;;;;;;;;4841542;29;19938;-88
2022/06/24 01:52:58;;;;;;;;;;;;;;;;;;4842228;29;19959;-88
2022/06/24 01:55:24;;;;;;;;;;;;;;;;;;4844971;29;19932;-88
2022/06/24 01:57:52;;;;;;;;;;;;;;;;;;4843537;29;19982;-88
2022/06/24 02:00:19;;;;;;;;;;;;;;;;;;4843481;29;20013;-88
2022/06/24 02:02:46;;;;;;;;;;;;;;;;;;4841662;29;20280;-88
2022/06/24 02:05:13;;;;;;;;;;;;;;;;;;4843891;29;19967;-88
2022/06/24 02:07:39;;;;;;;;;;;;;;;;;;4846207;29;19959;-88
2022/06/24 02:15:39;;;;;;;;;;;;;;;;;;4838561;29;19971;-88
2022/06/24 02:18:08;;;;;;;;;;;;;;;;;;4845338;29;19974;-88
2022/06/24 02:20:38;;;;;;;;;;;;;;;;;;4838689;29;20075;-88
2022/06/24 02:23:08;;;;;;;;;;;;;;;;;;4845925;29;20003;-88
2022/06/24 02:25:35;;;;;;;;;;;;;;;;;;4825567;29;20313;-88
2022/06/24 02:28:04;;;;;;;;;;;;;;;;;;4847919;29;19932;-88
2022/06/24 02:30:39;;;;;;;;;;;;;;;;;;4849013;29;20003;-88
2022/06/24 02:33:05;;;;;;;;;;;;;;;;;;4829329;29;20375;-88
2022/06/24 02:35:32;;;;;;;;;;;;;;;;;;4827370;29;19971;-88
2022/06/24 02:37:58;;;;;;;;;;;;;;;;;;4823066;29;20391;-88
2022/06/24 02:43:17;;;;;;;;;;;;;;;;;;4845073;29;20559;-87
2022/06/24 02:45:45;;;;;;;;;;;;;;;;;;4837596;29;19931;-88
2022/06/24 02:48:17;;;;;;;;;;;;;;;;;;4844596;29;19938;-87
2022/06/24 02:50:43;;;;;;;;;;;;;;;;;;4823885;29;19927;-87
2022/06/24 02:53:28;;;;;;;;;;;;;;;;;;4844157;29;20048;-88
2022/06/24 02:55:54;;;;;;;;;;;;;;;;;;4839341;29;20841;-88
2022/06/24 02:58:21;;;;;;;;;;;;;;;;;;4843773;29;19924;-88
2022/06/24 03:00:47;;;;;;;;;;;;;;;;;;4824950;29;19936;-88
2022/06/24 03:03:14;;;;;;;;;;;;;;;;;;4829314;29;21971;-88
2022/06/24 03:05:40;;;;;;;;;;;;;;;;;;4845464;29;20011;-88
2022/06/24 03:08:07;;;;;;;;;;;;;;;;;;4853514;29;19927;-88
2022/06/24 03:10:34;;;;;;;;;;;;;;;;;;4850699;29;19935;-87
2022/06/24 03:13:01;;;;;;;;;;;;;;;;;;4849194;29;19935;-88
2022/06/24 03:15:27;;;;;;;;;;;;;;;;;;4845231;29;19939;-88
2022/06/24 03:17:54;;;;;;;;;;;;;;;;;;4845309;29;19931;-88
2022/06/24 03:20:21;;;;;;;;;;;;;;;;;;4848118;29;19936;-88
2022/06/24 03:22:48;;;;;;;;;;;;;;;;;;4842388;29;19936;-88
2022/06/24 03:25:15;;;;;;;;;;;;;;;;;;4846117;29;19959;-87
2022/06/24 03:27:43;;;;;;;;;;;;;;;;;;4846104;29;19954;-88
2022/06/24 03:30:16;;;;;;;;;;;;;;;;;;4846427;29;20694;-88
2022/06/24 03:32:43;;;;;;;;;;;;;;;;;;4846274;29;19927;-88
2022/06/24 03:35:09;;;;;;;;;;;;;;;;;;4846861;29;19932;-88
2022/06/24 03:37:36;;;;;;;;;;;;;;;;;;4844569;29;19971;-87
2022/06/24 03:40:04;;;;;;;;;;;;;;;;;;4829916;29;19934;-88
2022/06/24 03:42:31;;;;;;;;;;;;;;;;;;4847697;29;19939;-88
2022/06/24 03:44:58;;;;;;;;;;;;;;;;;;4839980;29;20612;-88
2022/06/24 03:47:24;;;;;;;;;;;;;;;;;;4844540;29;19939;-87
2022/06/24 03:49:54;;;;;;;;;;;;;;;;;;4841521;29;20387;-88
2022/06/24 03:52:20;;;;;;;;;;;;;;;;;;4848160;29;19928;-88
2022/06/24 03:54:46;;;;;;;;;;;;;;;;;;4843217;29;19924;-88
2022/06/24 03:57:12;;;;;;;;;;;;;;;;;;4826702;29;19949;-88
2022/06/24 03:59:38;;;;;;;;;;;;;;;;;;4845297;29;19938;-87
2022/06/24 04:02:21;;;;;;;;;;;;;;;;;;4827621;29;19932;-83
2022/06/24 04:04:48;;;;;;;;;;;;;;;;;;4818421;29;19929;-82
2022/06/24 04:07:15;;;;;;;;;;;;;;;;;;4810992;29;19961;-82
2022/06/24 04:09:43;;;;;;;;;;;;;;;;;;4810027;29;20031;-82
2022/06/24 04:12:10;;;;;;;;;;;;;;;;;;4817918;29;20314;-82
2022/06/24 04:17:33;;;;;;;;;;;;;;;;;;4809879;29;19972;-82
2022/06/24 04:20:17;;;;;;;;;;;;;;;;;;4813531;29;20492;-82
2022/06/24 04:22:46;;;;;;;;;;;;;;;;;;4823224;29;19962;-81
2022/06/24 04:25:12;;;;;;;;;;;;;;;;;;4808758;29;22342;-82
2022/06/24 04:27:39;;;;;;;;;;;;;;;;;;4806020;29;19932;-82
2022/06/24 04:30:06;;;;;;;;;;;;;;;;;;4811100;29;19953;-82
2022/06/24 04:32:35;;;;;;;;;;;;;;;;;;4811894;29;19987;-82
2022/06/24 04:35:02;;;;;;;;;;;;;;;;;;4806160;29;19936;-82
2022/06/24 04:37:30;;;;;;;;;;;;;;;;;;4825749;29;19932;-82
2022/06/24 04:40:10;;;;;;;;;;;;;;;;;;4826215;29;20028;-82
2022/06/24 04:42:38;;;;;;;;;;;;;;;;;;4791698;29;19936;-82
2022/06/24 04:45:05;;;;;;;;;;;;;;;;;;4823101;29;19956;-82
2022/06/24 04:47:32;;;;;;;;;;;;;;;;;;4798179;29;19932;-82
2022/06/24 04:50:02;;;;;;;;;;;;;;;;;;4812100;29;19980;-82
2022/06/24 04:52:45;;;;;;;;;;;;;;;;;;4820528;29;20100;-82
2022/06/24 04:55:10;;;;;;;;;;;;;;;;;;4826367;29;19932;-83
2022/06/24 04:57:38;;;;;;;;;;;;;;;;;;4810611;29;19939;-82
2022/06/24 05:00:04;;;;;;;;;;;;;;;;;;4814270;29;20120;-82
2022/06/24 05:02:31;;;;;;;;;;;;;;;;;;4810193;29;19936;-82
2022/06/24 05:04:57;;;;;;;;;;;;;;;;;;4812183;29;20015;-82
2022/06/24 05:07:24;;;;;;;;;;;;;;;;;;4846837;29;19927;-82
2022/06/24 05:09:50;;;;;;;;;;;;;;;;;;4843432;29;19943;-82
2022/06/24 05:12:16;;;;;;;;;;;;;;;;;;4843697;29;19928;-82
2022/06/24 05:14:49;;;;;;;;;;;;;;;;;;4842772;29;19986;-82
2022/06/24 05:17:16;;;;;;;;;;;;;;;;;;4845174;29;19931;-82
2022/06/24 05:19:43;;;;;;;;;;;;;;;;;;4824302;29;19923;-82
2022/06/24 05:22:10;;;;;;;;;;;;;;;;;;4841931;29;20031;-82
2022/06/24 05:24:36;;;;;;;;;;;;;;;;;;4824341;29;20734;-82
2022/06/24 05:27:17;;;;;;;;;;;;;;;;;;4812288;29;20060;-82
2022/06/24 05:29:43;;;;;;;;;;;;;;;;;;4821866;29;20411;-82
2022/06/24 05:32:10;;;;;;;;;;;;;;;;;;4807367;29;19936;-82
2022/06/24 05:34:38;;;;;;;;;;;;;;;;;;4791169;29;19979;-82
2022/06/24 05:37:05;;;;;;;;;;;;;;;;;;4824479;29;20400;-82
2022/06/24 05:39:31;;;;;;;;;;;;;;;;;;4819906;29;19928;-82
2022/06/24 05:42:04;;;;;;;;;;;;;;;;;;4824185;29;19972;-82
2022/06/24 05:44:30;;;;;;;;;;;;;;;;;;4795830;29;19940;-83
2022/06/24 05:46:56;;;;;;;;;;;;;;;;;;4807155;29;19976;-82
2022/06/24 05:49:22;;;;;;;;;;;;;;;;;;4824927;29;20007;-82
2022/06/24 05:51:48;;;;;;;;;;;;;;;;;;4792131;29;20022;-84
2022/06/24 05:56:58;;;;;;;;;;;;;;;;;;4819261;29;20017;-84
2022/06/24 05:59:24;;;;;;;;;;;;;;;;;;4838489;29;19966;-84
2022/06/24 06:01:53;;;;;;;;;;;;;;;;;;4840933;29;21800;-84
2022/06/24 06:04:21;;;;;;;;;;;;;;;;;;4830074;29;20360;-84
2022/06/24 06:06:48;;;;;;;;;;;;;;;;;;4840685;29;19927;-83
2022/06/24 06:09:15;;;;;;;;;;;;;;;;;;4841638;29;20019;-84
2022/06/24 06:11:42;;;;;;;;;;;;;;;;;;4839233;29;19932;-83
2022/06/24 06:14:27;;;;;;;;;;;;;;;;;;4843396;29;19931;-83
2022/06/24 06:16:57;;;;;;;;;;;;;;;;;;4841216;29;20037;-83
2022/06/24 06:19:24;;;;;;;;;;;;;;;;;;4840605;29;19927;-83
2022/06/24 06:21:50;;;;;;;;;;;;;;;;;;4771927;29;2024392;-83
2022/06/24 06:24:16;;;;;;;;;;;;;;;;;;4828862;29;19940;-83
2022/06/24 06:26:43;;;;;;;;;;;;;;;;;;4840254;29;19954;-82
2022/06/24 06:29:10;;;;;;;;;;;;;;;;;;4824612;29;20390;-83
2022/06/24 06:31:38;;;;;;;;;;;;;;;;;;4841387;29;19956;-83
2022/06/24 06:34:06;;;;;;;;;;;;;;;;;;4844171;29;19990;-83
2022/06/24 06:36:32;;;;;;;;;;;;;;;;;;4852872;29;19984;-83
2022/06/24 06:38:58;;;;;;;;;;;;;;;;;;4847667;29;20615;-82
2022/06/24 06:41:24;;;;;;;;;;;;;;;;;;4841290;29;20003;-82
2022/06/24 06:43:49;;;;;;;;;;;;;;;;;;4847469;29;19967;-82
2022/06/24 06:46:17;;;;;;;;;;;;;;;;;;4850749;29;20733;-83
2022/06/24 06:48:43;;;;;;;;;;;;;;;;;;4846418;29;19963;-84
2022/06/24 06:51:10;;;;;;;;;;;;;;;;;;4850288;29;20018;-85
2022/06/24 06:53:36;;;;;;;;;;;;;;;;;;4843031;29;19928;-85
2022/06/24 06:56:03;;;;;;;;;;;;;;;;;;4855095;29;20287;-85
2022/06/24 06:58:29;;;;;;;;;;;;;;;;;;4853328;29;21509;-84
2022/06/24 07:01:11;;;;;;;;;;;;;;;;;;4856579;29;19987;-83
2022/06/24 07:03:38;;;;;;;;;;;;;;;;;;4857878;29;20354;-92
2022/06/24 07:06:05;;;;;;;;;;;;;;;;;;4869047;29;20387;-92
2022/06/24 07:08:31;;;;;;;;;;;;;;;;;;4867196;29;19923;-91
2022/06/24 07:10:58;;;;;;;;;;;;;;;;;;4850926;29;19928;-92
2022/06/24 07:13:24;;;;;;;;;;;;;;;;;;4852592;29;19924;-91
2022/06/24 07:15:51;;;;;;;;;;;;;;;;;;4855941;29;19931;-91
2022/06/24 07:18:18;;;;;;;;;;;;;;;;;;4849638;29;19944;-91
2022/06/24 07:20:46;;;;;;;;;;;;;;;;;;4849574;29;20371;-92
2022/06/24 07:23:12;;;;;;;;;;;;;;;;;;4843519;29;19970;-92
2022/06/24 07:25:39;;;;;;;;;;;;;;;;;;4854443;29;19971;-91
2022/06/24 07:28:06;;;;;;;;;;;;;;;;;;4860135;29;19953;-91
2022/06/24 07:30:32;;;;;;;;;;;;;;;;;;4858077;29;19970;-91
2022/06/24 07:32:59;;;;;;;;;;;;;;;;;;4854122;29;19967;-91
2022/06/24 07:35:26;;;;;;;;;;;;;;;;;;4845807;29;19928;-92
2022/06/24 07:37:52;;;;;;;;;;;;;;;;;;4857748;29;19924;-91
2022/06/24 07:40:18;;;;;;;;;;;;;;;;;;4856458;29;19923;-92
2022/06/24 07:42:49;;;;;;;;;;;;;;;;;;4851131;29;19971;-86
2022/06/24 07:45:19;;;;;;;;;;;;;;;;;;4858706;29;19928;-85
2022/06/24 07:47:46;;;;;;;;;;;;;;;;;;4846816;29;22644;-85
2022/06/24 07:50:19;;;;;;;;;;;;;;;;;;4857761;29;19946;-85
2022/06/24 07:52:46;;;;;;;;;;;;;;;;;;4854531;29;19980;-85
2022/06/24 07:57:59;;;;;;;;;;;;;;;;;;4848642;29;19947;-85
2022/06/24 08:00:25;;;;;;;;;;;;;;;;;;4858819;29;20010;-85
2022/06/24 08:02:52;;;;;;;;;;;;;;;;;;4851910;29;20069;-85
2022/06/24 08:05:23;;;;;;;;;;;;;;;;;;4859989;29;19927;-85
2022/06/24 08:07:49;;;;;;;;;;;;;;;;;;4856149;29;19923;-85
2022/06/24 08:10:16;;;;;;;;;;;;;;;;;;4861040;29;20340;-85
2022/06/24 08:12:42;;;;;;;;;;;;;;;;;;4858044;29;19935;-85
2022/06/24 08:15:08;;;;;;;;;;;;;;;;;;4857981;29;19928;-84
2022/06/24 08:17:34;;;;;;;;;;;;;;;;;;4854875;29;19930;-85
2022/06/24 08:20:04;;;;;;;;;;;;;;;;;;4861311;29;19975;-84
2022/06/24 08:22:30;;;;;;;;;;;;;;;;;;4853301;29;19928;-85
2022/06/24 08:25:01;;;;;;;;;;;;;;;;;;4855593;29;19975;-85
2022/06/24 08:27:27;;;;;;;;;;;;;;;;;;4857192;29;19999;-85
2022/06/24 08:29:53;;;;;;;;;;;;;;;;;;4855284;29;19924;-85
2022/06/24 08:32:19;;;;;;;;;;;;;;;;;;4855965;29;19928;-84
2022/06/24 08:35:05;;;;;;;;;;;;;;;;;;4859169;29;19922;-84
2022/06/24 08:37:31;;;;;;;;;;;;;;;;;;4845604;29;20064;-85
2022/06/24 08:40:00;;;;;;;;;;;;;;;;;;4847648;29;21119;-85
2022/06/24 08:42:25;;;;;;;;;;;;;;;;;;4856800;29;19939;-86
2022/06/24 08:44:53;;;;;;;;;;;;;;;;;;4851816;29;19932;-87
2022/06/24 08:47:19;;;;;;;;;;;;;;;;;;4859005;29;19975;-86
2022/06/24 08:49:46;;;;;;;;;;;;;;;;;;4852202;29;19982;-86
2022/06/24 08:52:13;;;;;;;;;;;;;;;;;;4855875;29;20010;-86
2022/06/24 08:54:46;;;;;;;;;;;;;;;;;;4851234;29;20307;-91
2022/06/24 08:57:13;;;;;;;;;;;;;;;;;;4844560;29;19936;-91
2022/06/24 08:59:39;;;;;;;;;;;;;;;;;;4853118;29;19931;-92
2022/06/24 09:02:05;;;;;;;;;;;;;;;;;;4847333;29;20299;-91
2022/06/24 09:04:31;;;;;;;;;;;;;;;;;;4863971;29;19924;-91
2022/06/24 09:06:58;;;;;;;;;;;;;;;;;;4855201;29;19923;-90
2022/06/24 09:09:24;;;;;;;;;;;;;;;;;;4865886;29;19924;-91
2022/06/24 09:11:54;;;;;;;;;;;;;;;;;;4856490;29;21013;-91
2022/06/24 09:14:20;;;;;;;;;;;;;;;;;;4857914;29;19928;-91
2022/06/24 09:16:45;;;;;;;;;;;;;;;;;;4840938;29;19931;-91
2022/06/24 09:19:14;;;;;;;;;;;;;;;;;;4863895;29;19931;-90
2022/06/24 09:21:41;;;;;;;;;;;;;;;;;;4853388;29;19928;-90
2022/06/24 09:24:07;;;;;;;;;;;;;;;;;;4844486;29;19984;-91
2022/06/24 09:26:33;;;;;;;;;;;;;;;;;;4841202;29;19995;-91
2022/06/24 09:29:14;;;;;;;;;;;;;;;;;;4862931;29;19984;-90
2022/06/24 09:31:42;;;;;;;;;;;;;;;;;;4860411;29;19932;-90
2022/06/24 09:34:09;;;;;;;;;;;;;;;;;;4853884;29;20357;-91
2022/06/24 09:36:36;;;;;;;;;;;;;;;;;;4861824;29;20022;-91
2022/06/24 09:39:03;;;;;;;;;;;;;;;;;;4863136;29;19955;-91
2022/06/24 09:41:30;;;;;;;;;;;;;;;;;;4845594;29;20011;-91
2022/06/24 09:43:57;;;;;;;;;;;;;;;;;;4857899;29;19931;-91
2022/06/24 09:46:24;;;;;;;;;;;;;;;;;;4857671;29;19923;-91
2022/06/24 09:48:57;;;;;;;;;;;;;;;;;;4842292;29;19939;-92
2022/06/24 09:51:24;;;;;;;;;;;;;;;;;;4840700;29;19968;-92
2022/06/24 09:53:51;;;;;;;;;;;;;;;;;;4856487;29;20348;-92
2022/06/24 09:56:19;;;;;;;;;;;;;;;;;;4841148;29;19980;-92
2022/06/24 10:01:48;;;;;;;;;;;;;;;;;;4838773;29;19984;-93
2022/06/24 10:04:33;;;;;;;;;;;;;;;;;;;;;
2022/06/24 10:07:04;;;;;;;;;;;;;;;;;;4863071;29;20379;-95
2022/06/24 10:09:31;;;;;;;;;;;;;;;;;;4850972;29;19932;-94
2022/06/24 10:12:17;;;;;;;;;;;;;;;;;;4869387;29;19938;-95
2022/06/24 10:14:43;;;;;;;;;;;;;;;;;;4848711;29;19924;-94
2022/06/24 10:17:10;;;;;;;;;;;;;;;;;;4858371;29;19928;-92
2022/06/24 10:19:36;;;;;;;;;;;;;;;;;;4861061;29;19935;-95
2022/06/24 10:22:02;;;;;;;;;;;;;;;;;;4845012;29;19932;-93
2022/06/24 10:24:30;;;;;;;;;;;;;;;;;;4856355;29;19935;-92
2022/06/24 10:26:57;;;;;;;;;;;;;;;;;;4854251;29;19932;-91
2022/06/24 10:29:24;;;;;;;;;;;;;;;;;;4852417;29;20443;-91
2022/06/24 10:31:54;;;;;;;;;;;;;;;;;;4856511;29;19935;-92
2022/06/24 10:34:22;;;;;;;;;;;;;;;;;;4855964;29;20592;-92
2022/06/24 10:36:48;;;;;;;;;;;;;;;;;;4856630;29;19925;-93
2022/06/24 10:39:15;;;;;;;;;;;;;;;;;;4855996;29;19924;-92
2022/06/24 10:41:41;;;;;;;;;;;;;;;;;;4856316;29;19951;-92
2022/06/24 10:44:07;;;;;;;;;;;;;;;;;;4858577;29;19936;-92
2022/06/24 10:46:34;;;;;;;;;;;;;;;;;;4858741;29;19924;-92
2022/06/24 10:49:00;;;;;;;;;;;;;;;;;;4855759;29;19954;-92
2022/06/24 10:51:28;;;;;;;;;;;;;;;;;;4857869;29;19975;-91
2022/06/24 10:53:55;;;;;;;;;;;;;;;;;;4845698;29;19932;-91
2022/06/24 10:56:22;;;;;;;;;;;;;;;;;;4857516;29;19992;-91
2022/06/24 10:58:50;;;;;;;;;;;;;;;;;;4849175;29;19928;-91
2022/06/24 11:01:16;;;;;;;;;;;;;;;;;;4855601;29;19927;-91
2022/06/24 11:03:43;;;;;;;;;;;;;;;;;;4855221;29;19932;-91
2022/06/24 11:06:09;;;;;;;;;;;;;;;;;;4858345;29;19932;-92
2022/06/24 11:08:36;;;;;;;;;;;;;;;;;;4851232;29;19935;-90
2022/06/24 11:11:05;;;;;;;;;;;;;;;;;;4844216;29;20280;-91
2022/06/24 11:13:32;;;;;;;;;;;;;;;;;;4857257;29;19936;-91
2022/06/24 11:15:58;;;;;;;;;;;;;;;;;;4834870;29;19931;-91
2022/06/24 11:18:24;;;;;;;;;;;;;;;;;;4858043;29;19924;-90
2022/06/24 11:21:07;;;;;;;;;;;;;;;;;;4857328;29;20031;-91
2022/06/24 11:23:34;;;;;;;;;;;;;;;;;;4865269;29;19927;-90
2022/06/24 11:26:20;;;;;;;;;;;;;;;;;;4829589;29;19928;-91
2022/06/24 11:28:47;;;;;;;;;;;;;;;;;;4825197;29;19939;-90
2022/06/24 11:31:15;;;;;;;;;;;;;;;;;;4818114;29;20018;-90
2022/06/24 11:33:42;;;;;;;;;;;;;;;;;;4828169;29;19924;-90
2022/06/24 11:36:10;;;;;;;;;;;;;;;;;;4826686;29;20050;-90
2022/06/24 11:38:41;;;;;;;;;;;;;;;;;;4826492;29;20361;-90
2022/06/24 11:41:08;;;;;;;;;;;;;;;;;;4846634;29;20328;-90
2022/06/24 11:43:35;;;;;;;;;;;;;;;;;;4824339;29;19935;-90
2022/06/24 11:46:03;;;;;;;;;;;;;;;;;;4815405;29;19935;-90
2022/06/24 11:48:30;;;;;;;;;;;;;;;;;;4844527;29;19932;-89
2022/06/24 11:50:56;;;;;;;;;;;;;;;;;;4829359;29;19938;-90
2022/06/24 11:53:23;;;;;;;;;;;;;;;;;;4830170;29;20497;-91
2022/06/24 11:55:52;;;;;;;;;;;;;;;;;;4826933;29;20122;-90
2022/06/24 11:58:18;;;;;;;;;;;;;;;;;;4814655;29;19929;-90
2022/06/24 12:00:45;;;;;;;;;;;;;;;;;;4820509;29;19935;-90
2022/06/24 12:03:12;;;;;;;;;;;;;;;;;;4824897;29;19928;-90
2022/06/24 12:05:38;;;;;;;;;;;;;;;;;;4821035;29;19928;-90
2022/06/24 12:08:06;;;;;;;;;;;;;;;;;;4812602;29;19946;-90
2022/06/24 12:10:33;;;;;;;;;;;;;;;;;;4832840;29;19924;-90
2022/06/24 12:13:00;;;;;;;;;;;;;;;;;;4855672;29;20333;-90
2022/06/24 12:15:36;;;;;;;;;;;;;;;;;;4863397;29;19932;-90
2022/06/24 12:18:03;;;;;;;;;;;;;;;;;;4860763;29;20026;-89
2022/06/24 12:20:30;;;;;;;;;;;;;;;;;;4843154;29;19927;-90
2022/06/24 12:22:57;;;;;;;;;;;;;;;;;;4858856;29;19936;-90
2022/06/24 12:25:23;;;;;;;;;;;;;;;;;;4864806;29;19924;-90
2022/06/24 12:27:49;;;;;;;;;;;;;;;;;;4843559;29;19979;-90
2022/06/24 12:30:17;;;;;;;;;;;;;;;;;;4848365;29;19967;-90
2022/06/24 12:32:43;;;;;;;;;;;;;;;;;;4857560;29;19923;-90
2022/06/24 12:35:11;;;;;;;;;;;;;;;;;;4868156;29;19946;-90
2022/06/24 12:37:45;;;;;;;;;;;;;;;;;;4856870;29;19956;-90
2022/06/24 12:40:13;;;;;;;;;;;;;;;;;;4845838;29;19963;-89
2022/06/24 12:42:38;;;;;;;;;;;;;;;;;;4858830;29;20395;-90
2022/06/24 12:45:06;;;;;;;;;;;;;;;;;;4849669;29;19942;-91
2022/06/24 12:53:07;;;;;;;;;;;;;;;;;;4853545;29;20371;-84
2022/06/24 12:55:33;;;;;;;;;;;;;;;;;;4856057;29;19959;-84
2022/06/24 12:58:07;;;;;;;;;;;;;;;;;;4851084;29;19923;-84
2022/06/24 13:00:38;;;;;;;;;;;;;;;;;;4850125;29;19924;-84
2022/06/24 13:03:05;;;;;;;;;;;;;;;;;;4851892;29;19928;-83
2022/06/24 13:05:32;;;;;;;;;;;;;;;;;;4849776;29;19928;-83
2022/06/24 13:07:58;;;;;;;;;;;;;;;;;;4844409;29;19928;-83
2022/06/24 13:10:24;;;;;;;;;;;;;;;;;;4852614;29;20399;-83
2022/06/24 13:12:52;;;;;;;;;;;;;;;;;;4844735;29;19962;-83
2022/06/24 13:15:19;;;;;;;;;;;;;;;;;;4844121;29;19950;-83
2022/06/24 13:17:45;;;;;;;;;;;;;;;;;;4846692;29;19932;-84
2022/06/24 13:20:13;;;;;;;;;;;;;;;;;;4853145;29;19932;-83
2022/06/24 13:22:40;;;;;;;;;;;;;;;;;;4847347;29;19939;-84
2022/06/24 13:25:07;;;;;;;;;;;;;;;;;;4852956;29;19935;-83
2022/06/24 13:27:33;;;;;;;;;;;;;;;;;;4851701;29;19932;-83
2022/06/24 13:30:14;;;;;;;;;;;;;;;;;;4826224;29;19953;-83
2022/06/24 13:32:41;;;;;;;;;;;;;;;;;;4826888;29;19959;-83
2022/06/24 13:35:07;;;;;;;;;;;;;;;;;;4834947;29;21434;-83
2022/06/24 13:37:39;;;;;;;;;;;;;;;;;;4816680;29;19957;-83
2022/06/24 13:40:06;;;;;;;;;;;;;;;;;;4831752;29;20535;-83
2022/06/24 13:42:36;;;;;;;;;;;;;;;;;;4834064;29;20471;-83
2022/06/24 13:45:03;;;;;;;;;;;;;;;;;;4833616;29;20300;-83
2022/06/24 13:47:30;;;;;;;;;;;;;;;;;;4829637;29;20319;-83
2022/06/24 13:50:00;;;;;;;;;;;;;;;;;;4813478;29;19943;-83
2022/06/24 13:52:27;;;;;;;;;;;;;;;;;;4815299;29;20015;-83
2022/06/24 13:54:53;;;;;;;;;;;;;;;;;;4813535;29;19932;-83
2022/06/24 13:57:25;;;;;;;;;;;;;;;;;;4814161;29;19932;-83
2022/06/24 13:59:52;;;;;;;;;;;;;;;;;;4803761;29;19947;-86
2022/06/24 14:02:20;;;;;;;;;;;;;;;;;;4849999;29;20019;-82
2022/06/24 14:04:48;;;;;;;;;;;;;;;;;;4843967;29;19935;-82
2022/06/24 14:07:21;;;;;;;;;;;;;;;;;;4853314;29;20132;-83
2022/06/24 14:10:03;;;;;;;;;;;;;;;;;;4851971;29;19931;-83
2022/06/24 14:12:29;;;;;;;;;;;;;;;;;;4859339;29;19991;-84
2022/06/24 14:14:56;;;;;;;;;;;;;;;;;;4851554;29;22000;-85
2022/06/24 14:17:23;;;;;;;;;;;;;;;;;;4859648;29;19923;-83
2022/06/24 14:19:50;;;;;;;;;;;;;;;;;;4855942;29;19928;-85
2022/06/24 14:22:18;;;;;;;;;;;;;;;;;;4848487;29;19974;-85
2022/06/24 14:24:45;;;;;;;;;;;;;;;;;;4847752;29;19931;-85
2022/06/24 14:27:13;;;;;;;;;;;;;;;;;;4852951;29;20974;-83
2022/06/24 14:29:39;;;;;;;;;;;;;;;;;;4825471;29;19932;-84
2022/06/24 14:32:06;;;;;;;;;;;;;;;;;;4857447;29;19924;-84
2022/06/24 14:34:32;;;;;;;;;;;;;;;;;;4854940;29;19928;-84
2022/06/24 14:36:59;;;;;;;;;;;;;;;;;;4852163;29;19924;-84
2022/06/24 14:42:11;;;;;;;;;;;;;;;;;;4855900;29;20419;-84
2022/06/24 14:44:37;;;;;;;;;;;;;;;;;;4852594;29;19936;-85
2022/06/24 14:47:05;;;;;;;;;;;;;;;;;;4855650;29;20363;-84
2022/06/24 14:49:46;;;;;;;;;;;;;;;;;;4855728;29;19931;-85
2022/06/24 14:52:14;;;;;;;;;;;;;;;;;;4839145;29;19936;-84
2022/06/24 14:54:41;;;;;;;;;;;;;;;;;;4839987;29;20011;-84
2022/06/24 14:57:08;;;;;;;;;;;;;;;;;;4845153;29;19932;-84
2022/06/24 14:59:35;;;;;;;;;;;;;;;;;;4828990;29;21095;-84
2022/06/24 15:02:02;;;;;;;;;;;;;;;;;;4856862;29;19932;-84
2022/06/24 15:04:30;;;;;;;;;;;;;;;;;;4854625;29;19968;-85
2022/06/24 15:07:00;;;;;;;;;;;;;;;;;;4855275;29;20383;-84
2022/06/24 15:09:29;;;;;;;;;;;;;;;;;;4849055;29;19936;-85
2022/06/24 15:11:55;;;;;;;;;;;;;;;;;;4847448;29;20800;-84
2022/06/24 15:14:22;;;;;;;;;;;;;;;;;;4837812;29;19928;-84
2022/06/24 15:16:50;;;;;;;;;;;;;;;;;;4841516;29;19984;-84
2022/06/24 15:19:26;;;;;;;;;;;;;;;;;;4848285;29;19928;-84
2022/06/24 15:21:53;;;;;;;;;;;;;;;;;;4825726;29;20422;-84
2022/06/24 15:24:19;;;;;;;;;;;;;;;;;;4850931;29;19980;-83
2022/06/24 15:26:46;;;;;;;;;;;;;;;;;;4848853;29;19932;-84
2022/06/24 15:29:12;;;;;;;;;;;;;;;;;;4828966;29;19935;-84
2022/06/24 15:31:39;;;;;;;;;;;;;;;;;;4840218;29;19940;-85
2022/06/24 15:34:12;;;;;;;;;;;;;;;;;;4852158;29;20026;-83
2022/06/24 15:36:55;;;;;;;;;;;;;;;;;;4813792;29;23861;-84
2022/06/24 15:39:22;;;;;;;;;;;;;;;;;;4824830;29;20616;-81
2022/06/24 15:41:49;;;;;;;;;;;;;;;;;;4803704;29;20037;-84
2022/06/24 15:44:16;;;;;;;;;;;;;;;;;;4814348;29;20524;-83
2022/06/24 15:46:42;;;;;;;;;;;;;;;;;;4809584;29;19928;-84
2022/06/24 15:49:10;;;;;;;;;;;;;;;;;;4818598;29;20469;-84
2022/06/24 15:51:37;;;;;;;;;;;;;;;;;;4818566;29;19934;-84
2022/06/24 15:54:03;;;;;;;;;;;;;;;;;;4801128;29;19924;-88
2022/06/24 15:56:30;;;;;;;;;;;;;;;;;;4814272;29;19932;-90
2022/06/24 15:58:57;;;;;;;;;;;;;;;;;;4809728;29;19932;-88
2022/06/24 16:01:40;;;;;;;;;;;;;;;;;;4820657;29;19936;-89
2022/06/24 16:04:10;;;;;;;;;;;;;;;;;;4830569;29;19954;-89
2022/06/24 16:06:37;;;;;;;;;;;;;;;;;;4800464;29;19939;-90
2022/06/24 16:09:03;;;;;;;;;;;;;;;;;;4816145;29;20120;-89
2022/06/24 16:11:30;;;;;;;;;;;;;;;;;;4825300;29;20398;-87
2022/06/24 16:13:59;;;;;;;;;;;;;;;;;;4838120;29;19983;-88
2022/06/24 16:16:25;;;;;;;;;;;;;;;;;;4840449;29;19947;-88
2022/06/24 16:18:58;;;;;;;;;;;;;;;;;;4835654;29;19938;-88
2022/06/24 16:21:24;;;;;;;;;;;;;;;;;;4858337;29;20372;-87
2022/06/24 16:23:51;;;;;;;;;;;;;;;;;;4852635;29;19982;-89
2022/06/24 16:29:04;;;;;;;;;;;;;;;;;;4845673;29;19967;-89
2022/06/24 16:31:30;;;;;;;;;;;;;;;;;;4828419;29;19967;-88
2022/06/24 16:33:59;;;;;;;;;;;;;;;;;;4857819;29;19975;-88
2022/06/24 16:36:27;;;;;;;;;;;;;;;;;;4865423;29;19924;-88
2022/06/24 16:38:55;;;;;;;;;;;;;;;;;;4856465;29;19939;-87
2022/06/24 16:41:24;;;;;;;;;;;;;;;;;;4859596;29;19927;-88
2022/06/24 16:43:50;;;;;;;;;;;;;;;;;;4853932;29;19938;-87
2022/06/24 16:46:21;;;;;;;;;;;;;;;;;;4856265;29;20451;-87
2022/06/24 16:48:47;;;;;;;;;;;;;;;;;;4855152;29;19924;-87
2022/06/24 16:51:14;;;;;;;;;;;;;;;;;;4858629;29;19935;-88
2022/06/24 16:53:56;;;;;;;;;;;;;;;;;;4854111;29;21751;-87
2022/06/24 16:56:22;;;;;;;;;;;;;;;;;;4860196;29;19932;-88
2022/06/24 16:58:50;;;;;;;;;;;;;;;;;;4838532;29;20451;-88
2022/06/24 17:01:17;;;;;;;;;;;;;;;;;;4859000;29;20416;-87
2022/06/24 17:03:44;;;;;;;;;;;;;;;;;;4857532;29;19932;-88
2022/06/24 17:06:11;;;;;;;;;;;;;;;;;;4859978;29;20800;-87
2022/06/24 17:08:37;;;;;;;;;;;;;;;;;;4854356;29;20046;-88
2022/06/24 17:11:03;;;;;;;;;;;;;;;;;;4854570;29;19986;-88
2022/06/24 17:13:36;;;;;;;;;;;;;;;;;;4859448;29;19979;-88
2022/06/24 17:16:02;;;;;;;;;;;;;;;;;;4857037;29;20019;-87
2022/06/24 17:18:29;;;;;;;;;;;;;;;;;;4856504;29;20014;-87
2022/06/24 17:20:56;;;;;;;;;;;;;;;;;;4850403;29;19932;-88
2022/06/24 17:23:24;;;;;;;;;;;;;;;;;;4858223;29;20414;-87